createdAt,value
2023-03-02T00:00:52.524Z,8.10
2023-03-02T00:04:03.578Z,8.05
2023-03-02T00:19:48.950Z,9.83
2023-03-02T00:23:42.320Z,9.90
2023-03-02T00:27:31.547Z,9.35
2023-03-02T00:31:27.847Z,9.65
2023-03-02T00:35:16.730Z,9.13
2023-03-02T00:38:51.734Z,10.87
2023-03-02T00:46:29.049Z,11.35
2023-03-02T00:50:17.086Z,9.52
2023-03-02T00:54:11.681Z,11.40
2023-03-02T00:57:24.094Z,9.87
2023-03-02T01:01:33.481Z,9.70
2023-03-02T01:05:30.659Z,9.95
2023-03-02T01:09:28.684Z,10.32
2023-03-02T01:13:23.898Z,9.38
2023-03-02T01:21:09.894Z,8.85
2023-03-02T01:24:59.631Z,9.27
2023-03-02T01:29:03.646Z,10.45
2023-03-02T01:32:54.150Z,10.10
2023-03-02T01:36:50.674Z,7.47
2023-03-02T01:40:47.555Z,9.15
2023-03-02T01:44:37.077Z,9.65
2023-03-02T01:48:06.207Z,9.85
2023-03-02T01:52:01.086Z,8.68
2023-03-02T01:56:01.698Z,9.57
2023-03-02T02:00:02.654Z,9.48
2023-03-02T02:03:34.014Z,10.13
2023-03-02T02:10:51.504Z,9.73
2023-03-02T02:14:48.787Z,7.13
2023-03-02T02:18:47.427Z,8.48
2023-03-02T02:22:43.624Z,9.30
2023-03-02T02:26:48.886Z,7.87
2023-03-02T02:39:01.655Z,6.80
2023-03-02T02:46:43.745Z,6.70
2023-03-02T02:50:42.020Z,7.65
2023-03-02T02:54:11.417Z,7.70
2023-03-02T02:58:04.541Z,6.32
2023-03-02T03:02:07.232Z,6.07
2023-03-02T03:10:01.772Z,7.05
2023-03-02T03:13:15.297Z,6.33
2023-03-02T03:16:55.774Z,5.32
2023-03-02T03:24:10.962Z,7.75
2023-03-02T03:27:41.762Z,7.40
2023-03-02T03:31:19.358Z,6.70
2023-03-02T03:43:10.001Z,5.60
2023-03-02T03:50:47.187Z,6.90
2023-03-02T03:54:40.851Z,7.12
2023-03-02T03:58:39.376Z,6.43
2023-03-02T04:02:33.690Z,6.57
2023-03-02T04:06:29.014Z,5.50
2023-03-02T04:14:04.619Z,5.30
2023-03-02T04:21:57.633Z,5.60
2023-03-02T04:25:45.615Z,6.07
2023-03-02T04:29:48.975Z,6.47
2023-03-02T04:33:47.833Z,6.43
2023-03-02T04:37:51.291Z,6.35
2023-03-02T04:41:13.140Z,5.28
2023-03-02T04:44:27.730Z,5.87
2023-03-02T04:59:43.028Z,5.15
2023-03-02T05:03:14.216Z,5.85
2023-03-02T05:06:42.773Z,6.10
2023-03-02T05:10:19.764Z,6.20
2023-03-02T05:13:25.157Z,5.70
2023-03-02T05:16:59.663Z,4.87
2023-03-02T05:20:47.773Z,4.75
2023-03-02T05:24:37.006Z,5.63
2023-03-02T05:37:09.532Z,4.80
2023-03-02T05:41:05.455Z,5.12
2023-03-02T05:44:59.729Z,4.90
2023-03-02T05:48:46.553Z,4.62
2023-03-02T05:52:46.793Z,5.25
2023-03-02T06:42:26.212Z,5.90
2023-03-02T10:03:37.889Z,2.70
2023-03-02T13:36:13.139Z,3.27
2023-03-02T13:40:32.010Z,3.08
2023-03-02T14:04:45.705Z,3.12
2023-03-02T15:23:54.951Z,2.97
2023-03-02T15:44:57.035Z,3.00
2023-03-02T15:48:06.017Z,3.50
2023-03-02T15:51:43.572Z,3.10
2023-03-02T15:55:11.959Z,4.25
2023-03-02T16:05:58.897Z,3.67
2023-03-02T16:13:38.210Z,3.85
2023-03-02T16:38:19.195Z,4.73
2023-03-02T16:42:16.933Z,6.13
2023-03-02T16:46:03.724Z,5.00
2023-03-02T16:57:33.975Z,5.23
2023-03-02T17:01:42.344Z,6.10
2023-03-02T17:05:13.774Z,6.80
2023-03-02T17:09:13.502Z,6.95
2023-03-02T17:16:54.343Z,7.17
2023-03-02T17:20:54.570Z,7.93
2023-03-02T19:13:41.563Z,9.63
2023-03-02T19:17:39.699Z,9.23
2023-03-02T19:25:20.177Z,9.90
2023-03-02T19:36:08.973Z,9.40
2023-03-02T19:39:54.404Z,9.60
2023-03-02T19:43:32.664Z,9.77
2023-03-02T19:46:43.212Z,10.48
2023-03-02T19:50:25.968Z,10.18
2023-03-02T19:53:48.505Z,9.82
2023-03-02T19:57:24.642Z,9.23
2023-03-02T20:00:47.954Z,8.40
2023-03-02T20:04:23.861Z,9.00
2023-03-02T20:08:08.195Z,10.00
2023-03-02T20:11:23.609Z,9.25
2023-03-02T20:14:33.690Z,8.50
2023-03-02T20:17:48.781Z,9.50
2023-03-02T20:24:58.630Z,12.50
2023-03-02T20:28:08.247Z,11.55
2023-03-02T20:35:55.619Z,11.05
2023-03-02T20:39:02.602Z,11.40
2023-03-02T20:42:18.850Z,14.35
2023-03-02T20:45:27.608Z,14.25
2023-03-02T20:48:56.641Z,14.47
2023-03-02T20:56:14.568Z,13.27
2023-03-02T20:59:42.206Z,13.77
2023-03-02T21:03:18.524Z,13.07
2023-03-02T21:07:06.688Z,10.57
2023-03-02T21:10:37.588Z,10.85
2023-03-02T21:14:06.606Z,8.90
2023-03-02T21:17:16.354Z,10.32
2023-03-02T21:20:30.638Z,9.68
2023-03-02T21:23:45.626Z,9.37
2023-03-02T21:26:53.250Z,8.52
2023-03-02T21:30:11.641Z,9.82
2023-03-02T21:33:53.218Z,9.15
2023-03-02T21:37:15.446Z,8.45
2023-03-02T21:40:25.189Z,7.80
2023-03-02T21:43:43.635Z,8.50
2023-03-02T21:46:58.621Z,10.73
2023-03-02T21:50:20.685Z,8.80
2023-03-02T21:53:42.832Z,9.50
2023-03-02T21:57:17.603Z,8.60
2023-03-02T22:00:33.968Z,9.93
2023-03-02T22:04:07.226Z,9.13
2023-03-02T22:07:35.713Z,10.23
2023-03-02T22:10:48.235Z,10.98
2023-03-02T22:14:06.626Z,9.87
2023-03-02T22:17:18.556Z,9.73
2023-03-02T22:20:39.187Z,9.15
2023-03-02T22:24:33.634Z,9.27
2023-03-02T22:27:35.438Z,9.07
2023-03-02T22:30:51.628Z,9.43
2023-03-02T22:33:59.705Z,9.13
2023-03-02T22:37:23.933Z,9.73
2023-03-02T22:40:39.679Z,9.23
2023-03-02T22:44:12.596Z,10.32
2023-03-02T22:47:25.585Z,11.77
2023-03-02T22:50:43.598Z,11.77
2023-03-02T22:53:50.620Z,14.50
2023-03-02T22:57:05.637Z,15.43
2023-03-02T23:00:44.618Z,12.52
2023-03-02T23:04:11.661Z,10.67
2023-03-02T23:07:47.074Z,15.38
2023-03-02T23:11:15.355Z,15.07
2023-03-02T23:14:45.593Z,12.27
2023-03-02T23:17:57.360Z,14.50
2023-03-02T23:21:06.646Z,14.13
2023-03-02T23:24:16.166Z,12.93
2023-03-02T23:27:50.624Z,10.70
2023-03-02T23:31:00.975Z,10.48
2023-03-02T23:34:10.862Z,10.43
2023-03-02T23:37:25.782Z,10.07
2023-03-02T23:41:00.942Z,9.63
2023-03-02T23:44:03.533Z,8.90
2023-03-02T23:47:18.624Z,8.88
2023-03-02T23:50:20.408Z,9.88
2023-03-02T23:53:34.594Z,9.90
2023-03-02T23:56:36.303Z,10.30
2023-03-02T23:59:50.641Z,11.25
